Time;durP1;ratioP1;P1;durP2;ratioP2;P2;SDS_P1;SDS_P2;PMS_P1;PMS_P2;Temp;Humidity;BMP_temperature;BMP_pressure;BME280_temperature;BME280_humidity;BME280_pressure;Samples;Min_cycle;Max_cycle;Signal;HPM_P1;HPM_P2
2021/07/06 00:01:10;;;;;;;9.08;7.03;;;;;;;14.27;100.00;92922.80;1783657;80;21230;-80
2021/07/06 00:03:36;;;;;;;12.00;8.33;;;;;;;14.30;100.00;92919.81;1782601;80;21065;-77
2021/07/06 00:06:03;;;;;;;10.35;7.00;;;;;;;14.31;100.00;92918.60;1781788;80;21045;-77
2021/07/06 00:08:30;;;;;;;13.48;7.90;;;;;;;14.31;100.00;92924.08;1777328;80;21041;-74
2021/07/06 00:10:57;;;;;;;9.95;8.33;;;;;;;14.30;100.00;92925.28;1783089;80;21202;-76
2021/07/06 00:13:23;;;;;;;11.18;7.85;;;;;;;14.28;100.00;92923.56;1783745;80;21961;-74
2021/07/06 00:15:50;;;;;;;10.95;8.65;;;;;;;14.26;100.00;92925.97;1746664;80;21047;-79
2021/07/06 00:18:16;;;;;;;10.40;8.43;;;;;;;14.24;100.00;92926.98;1782127;80;21026;-75
2021/07/06 00:20:43;;;;;;;8.75;7.85;;;;;;;14.24;100.00;92926.38;1782270;78;21064;-77
2021/07/06 00:23:10;;;;;;;9.63;7.47;;;;;;;14.29;100.00;92937.39;1782820;78;21014;-76
2021/07/06 00:25:36;;;;;;;8.88;7.97;;;;;;;14.28;100.00;92933.89;1763101;80;21094;-77
2021/07/06 00:28:03;;;;;;;9.75;7.28;;;;;;;14.27;100.00;92929.63;1774182;78;21605;-78
2021/07/06 00:30:29;;;;;;;17.87;8.23;;;;;;;14.25;100.00;92936.12;1825557;78;21002;-77
2021/07/06 00:32:56;;;;;;;9.15;7.50;;;;;;;14.22;100.00;92928.80;1744402;78;21095;-78
2021/07/06 00:35:23;;;;;;;9.03;7.37;;;;;;;14.21;100.00;92934.68;1753884;80;21753;-77
2021/07/06 00:37:49;;;;;;;10.75;7.70;;;;;;;14.18;100.00;92930.86;1782757;80;21460;-76
2021/07/06 00:40:16;;;;;;;10.45;8.58;;;;;;;14.17;100.00;92930.67;1782917;80;21034;-75
2021/07/06 00:42:44;;;;;;;9.15;7.42;;;;;;;14.17;100.00;92929.30;1781875;80;21021;-77
2021/07/06 00:45:12;;;;;;;11.12;7.80;;;;;;;14.15;100.00;92931.71;1782690;80;21108;-76
2021/07/06 00:47:40;;;;;;;11.28;8.10;;;;;;;14.11;100.00;92930.27;1784184;80;20906;-77
2021/07/06 00:50:10;;;;;;;10.10;8.55;;;;;;;14.10;100.00;92917.17;1783900;80;21116;-75
2021/07/06 00:52:36;;;;;;;10.65;8.63;;;;;;;14.14;100.00;92925.29;1784498;80;20891;-77
2021/07/06 00:55:05;;;;;;;11.53;9.20;;;;;;;14.15;100.00;92924.88;1784200;79;20958;-78
2021/07/06 00:57:31;;;;;;;11.70;7.92;;;;;;;14.13;100.00;92925.12;1784312;80;20970;-77
2021/07/06 01:00:20;;;;;;;8.00;6.95;;;;;;;14.09;100.00;92919.75;1783898;80;21022;-77
2021/07/06 01:02:47;;;;;;;8.03;7.22;;;;;;;14.03;100.00;92916.78;1783790;80;21121;-78
2021/07/06 01:05:17;;;;;;;12.88;7.83;;;;;;;13.98;100.00;92911.05;1783909;80;21037;-77
2021/07/06 01:07:44;;;;;;;9.80;8.20;;;;;;;13.98;100.00;92921.98;1783823;80;21050;-77
2021/07/06 01:10:11;;;;;;;10.72;8.48;;;;;;;13.96;100.00;92916.19;1783393;80;21058;-77
2021/07/06 01:12:37;;;;;;;10.93;7.28;;;;;;;13.99;100.00;92916.67;1784214;80;21022;-78
2021/07/06 01:15:08;;;;;;;8.28;7.03;;;;;;;14.02;100.00;92919.92;1783130;80;21510;-77
2021/07/06 01:17:36;;;;;;;8.95;8.05;;;;;;;14.00;100.00;92919.59;1783923;80;21041;-77
2021/07/06 01:20:09;;;;;;;19.73;8.25;;;;;;;13.94;100.00;92924.03;1785779;80;21010;-75
2021/07/06 01:22:36;;;;;;;11.50;8.45;;;;;;;13.93;100.00;92929.34;1785819;80;21026;-74
2021/07/06 01:25:06;;;;;;;11.60;7.78;;;;;;;13.90;100.00;92927.45;1785914;79;21057;-74
2021/07/06 01:27:32;;;;;;;9.08;8.15;;;;;;;13.88;100.00;92934.72;1784458;80;21501;-78
2021/07/06 01:29:58;;;;;;;12.70;7.97;;;;;;;13.86;100.00;92933.00;1784161;80;20994;-75
2021/07/06 01:32:25;;;;;;;19.73;8.30;;;;;;;13.89;100.00;92932.75;1784679;80;20958;-77
2021/07/06 01:34:51;;;;;;;16.27;7.53;;;;;;;13.95;100.00;92929.06;1783515;80;21029;-78
2021/07/06 01:37:19;;;;;;;14.38;8.38;;;;;;;14.00;100.00;92935.39;1783104;80;21498;-77
2021/07/06 01:39:46;;;;;;;22.98;8.60;;;;;;;14.05;100.00;92934.11;1783960;80;21217;-75
2021/07/06 01:42:18;;;;;;;9.93;6.22;;;;;;;14.04;100.00;92935.31;1783317;80;21351;-79
2021/07/06 01:44:45;;;;;;;17.55;7.25;;;;;;;13.99;100.00;92932.50;1783725;80;21392;-76
2021/07/06 01:47:11;;;;;;;25.82;6.12;;;;;;;13.79;100.00;92933.17;1783527;80;21070;-77
2021/07/06 01:49:38;;;;;;;10.78;6.75;;;;;;;13.63;100.00;92935.91;1783329;80;21069;-75
2021/07/06 01:52:05;;;;;;;10.53;6.80;;;;;;;13.54;100.00;92939.20;1782851;80;21154;-76
2021/07/06 01:54:32;;;;;;;14.73;6.45;;;;;;;13.57;100.00;92941.09;1770263;80;21289;-78
2021/07/06 01:56:58;;;;;;;16.65;7.15;;;;;;;13.58;100.00;92949.48;1781728;80;21018;-75
2021/07/06 01:59:24;;;;;;;13.70;7.40;;;;;;;13.55;100.00;92948.95;1783263;80;21667;-77
2021/07/06 02:01:51;;;;;;;8.93;6.28;;;;;;;13.50;100.00;92952.17;1783703;80;21010;-75
2021/07/06 02:04:17;;;;;;;9.63;6.45;;;;;;;13.44;100.00;92950.56;1784357;80;21038;-75
2021/07/06 02:06:44;;;;;;;6.90;6.20;;;;;;;13.44;100.00;92951.16;1782048;80;22279;-75
2021/07/06 02:09:10;;;;;;;6.97;6.22;;;;;;;13.49;100.00;92948.68;1783888;80;21611;-76
2021/07/06 02:11:37;;;;;;;10.05;6.80;;;;;;;13.57;100.00;92954.75;1783327;80;21092;-74
2021/07/06 02:14:04;;;;;;;7.20;6.50;;;;;;;13.63;100.00;92952.30;1783639;80;21041;-77
2021/07/06 02:16:34;;;;;;;8.43;7.08;;;;;;;13.67;100.00;92949.65;1782515;79;21045;-77
2021/07/06 02:19:01;;;;;;;11.85;6.75;;;;;;;13.65;100.00;92945.80;1782817;80;21041;-74
2021/07/06 02:21:27;;;;;;;10.53;7.58;;;;;;;13.67;100.00;92952.98;1784361;80;21018;-76
2021/07/06 02:23:54;;;;;;;7.75;6.87;;;;;;;13.65;100.00;92962.19;1782350;80;21033;-75
2021/07/06 02:26:20;;;;;;;8.75;7.03;;;;;;;13.61;100.00;92958.17;1782696;80;21017;-78
2021/07/06 02:28:47;;;;;;;9.65;7.37;;;;;;;13.56;100.00;92965.52;1783473;80;21094;-76
2021/07/06 02:31:13;;;;;;;17.37;10.88;;;;;;;13.53;100.00;92969.85;1783968;80;21049;-75
2021/07/06 02:33:40;;;;;;;15.30;11.00;;;;;;;13.54;100.00;92968.69;1845215;77;21018;-76
2021/07/06 02:36:07;;;;;;;18.15;8.23;;;;;;;13.53;100.00;92978.65;1789989;77;21047;-78
2021/07/06 02:38:35;;;;;;;12.75;8.75;;;;;;;13.52;100.00;92975.75;1742897;80;21110;-78
2021/07/06 02:41:01;;;;;;;8.45;7.25;;;;;;;13.56;100.00;92978.57;1769157;80;21206;-78
2021/07/06 02:43:28;;;;;;;7.60;6.85;;;;;;;13.57;100.00;92980.70;1782836;80;21031;-77
2021/07/06 02:45:56;;;;;;;9.45;7.10;;;;;;;13.54;100.00;92977.45;1783219;80;21025;-79
2021/07/06 02:48:22;;;;;;;8.73;7.17;;;;;;;13.51;100.00;92976.35;1783665;80;21534;-76
2021/07/06 02:50:49;;;;;;;12.47;7.78;;;;;;;13.49;100.00;92982.05;1783328;80;20971;-78
2021/07/06 02:53:15;;;;;;;9.10;6.75;;;;;;;13.48;100.00;92977.80;1784227;80;21126;-79
2021/07/06 02:55:42;;;;;;;10.80;8.55;;;;;;;13.49;100.00;92982.82;1783726;80;20978;-77
2021/07/06 02:58:09;;;;;;;11.18;7.83;;;;;;;13.49;100.00;92980.09;1784290;80;21480;-75
2021/07/06 03:00:36;;;;;;;9.35;7.20;;;;;;;13.50;100.00;92983.59;1781911;80;21092;-78
2021/07/06 03:03:05;;;;;;;6.65;6.05;;;;;;;13.51;100.00;92979.69;1783173;80;21025;-77
2021/07/06 03:05:33;;;;;;;9.20;6.30;;;;;;;13.52;100.00;92981.98;1784107;80;21072;-75
2021/07/06 03:08:00;;;;;;;10.63;6.60;;;;;;;13.54;100.00;92984.27;1782585;80;21053;-76
2021/07/06 03:10:35;;;;;;;12.25;8.13;;;;;;;13.55;100.00;92992.66;1783840;80;21092;-75
2021/07/06 03:13:01;;;;;;;17.82;11.40;;;;;;;13.60;100.00;92994.88;1779255;80;21047;-77
2021/07/06 03:15:29;;;;;;;15.88;10.25;;;;;;;13.62;100.00;92991.74;1797813;79;21093;-77
2021/07/06 03:17:57;;;;;;;15.53;10.10;;;;;;;13.65;100.00;92994.97;1778898;78;21062;-77
2021/07/06 03:20:24;;;;;;;11.60;8.48;;;;;;;13.70;100.00;92999.34;1763718;80;21019;-77
2021/07/06 03:22:51;;;;;;;10.32;7.33;;;;;;;13.73;100.00;92999.11;1770382;79;21656;-79
2021/07/06 03:25:21;;;;;;;12.70;7.50;;;;;;;13.68;100.00;93005.82;1802750;79;21089;-77
2021/07/06 03:27:47;;;;;;;9.53;7.40;;;;;;;13.66;100.00;93006.86;1768414;79;21082;-77
2021/07/06 03:30:16;;;;;;;8.68;6.83;;;;;;;13.66;100.00;93003.36;1769254;79;21784;-75
2021/07/06 03:32:43;;;;;;;16.73;7.42;;;;;;;13.66;100.00;93007.45;1809743;77;21009;-75
2021/07/06 03:35:10;;;;;;;7.03;6.33;;;;;;;13.65;100.00;93012.13;1839772;77;21006;-75
2021/07/06 03:37:36;;;;;;;10.68;7.10;;;;;;;13.65;100.00;93012.73;1785542;80;21049;-77
2021/07/06 03:40:07;;;;;;;9.38;6.67;;;;;;;13.65;100.00;93017.59;1783916;80;21014;-77
2021/07/06 03:42:34;;;;;;;9.78;6.12;;;;;;;13.68;100.00;93020.08;1782843;80;21741;-75
2021/07/06 03:45:01;;;;;;;7.30;6.33;;;;;;;13.70;100.00;93014.98;1782267;80;21057;-78
2021/07/06 03:47:28;;;;;;;7.80;6.58;;;;;;;13.74;100.00;93018.39;1782650;80;21065;-76
2021/07/06 03:49:55;;;;;;;6.05;5.30;;;;;;;13.77;100.00;93019.69;1782734;80;21045;-77
2021/07/06 03:52:21;;;;;;;6.55;5.95;;;;;;;13.80;100.00;93018.84;1782626;80;21755;-77
2021/07/06 03:54:48;;;;;;;6.15;5.55;;;;;;;13.81;100.00;93017.64;1782759;80;21924;-77
2021/07/06 03:57:28;;;;;;;6.70;5.70;;;;;;;13.83;100.00;93016.60;1779087;80;21097;-77
2021/07/06 03:59:45;;;;;;;6.87;6.15;;;;;;;13.87;100.00;93017.89;1800140;75;21882;-76
2021/07/06 04:02:11;;;;;;;5.60;5.15;;;;;;;13.89;100.00;93016.88;1836475;77;21228;-77
2021/07/06 04:04:38;;;;;;;6.15;5.25;;;;;;;13.91;100.00;93018.57;1753616;80;21035;-77
2021/07/06 04:07:06;;;;;;;7.40;5.85;;;;;;;13.92;100.00;93019.37;1802653;79;22178;-76
2021/07/06 04:09:33;;;;;;;13.08;8.15;;;;;;;13.94;100.00;93019.69;1788515;79;21050;-76
2021/07/06 04:12:00;;;;;;;9.20;6.47;;;;;;;13.99;100.00;93019.17;1780705;80;21104;-76
2021/07/06 04:14:26;;;;;;;7.75;6.95;;;;;;;13.97;100.00;93022.34;1782998;80;21109;-77
2021/07/06 04:16:55;;;;;;;7.85;6.15;;;;;;;13.91;100.00;93034.20;1781722;80;21034;-75
2021/07/06 04:19:21;;;;;;;9.03;6.45;;;;;;;13.93;100.00;93033.96;1780408;80;21137;-76
2021/07/06 04:21:47;;;;;;;11.33;7.47;;;;;;;13.99;100.00;93030.11;1781848;80;22121;-76
2021/07/06 04:24:15;;;;;;;9.05;6.05;;;;;;;14.07;100.00;93033.64;1782651;80;21014;-74
2021/07/06 04:26:41;;;;;;;6.22;5.30;;;;;;;14.15;100.00;93032.11;1781231;80;21030;-75
2021/07/06 04:29:09;;;;;;;6.42;5.40;;;;;;;14.17;100.00;93034.56;1782673;80;21671;-78
2021/07/06 04:31:35;;;;;;;5.90;5.35;;;;;;;14.20;100.00;93030.98;1781683;80;21087;-79
2021/07/06 04:34:02;;;;;;;6.80;5.40;;;;;;;14.25;100.00;93035.16;1783180;80;21535;-76
2021/07/06 04:36:29;;;;;;;6.72;6.03;;;;;;;14.29;100.00;93039.38;1782365;80;21073;-76
2021/07/06 04:38:56;;;;;;;8.05;6.75;;;;;;;14.34;100.00;93034.75;1780885;80;21049;-76
2021/07/06 04:41:22;;;;;;;8.28;6.58;;;;;;;14.43;100.00;93032.77;1782947;80;21037;-76
2021/07/06 04:43:49;;;;;;;10.15;7.65;;;;;;;14.48;100.00;93038.31;1781897;80;21091;-79
2021/07/06 04:46:15;;;;;;;6.97;6.08;;;;;;;14.52;100.00;93037.69;1781291;80;21074;-77
2021/07/06 04:48:41;;;;;;;6.80;6.10;;;;;;;14.52;100.00;93036.31;1783063;80;21041;-76
2021/07/06 04:51:09;;;;;;;5.87;5.15;;;;;;;14.53;100.00;93039.98;1780315;80;21014;-75
2021/07/06 04:53:39;;;;;;;5.30;4.50;;;;;;;14.60;100.00;93032.80;1779934;80;21147;-77
2021/07/06 04:56:05;;;;;;;6.55;5.75;;;;;;;14.69;100.00;93034.31;1781278;80;21085;-76
2021/07/06 04:58:32;;;;;;;6.40;5.40;;;;;;;14.78;100.00;93031.72;1782525;80;21144;-78
2021/07/06 05:01:00;;;;;;;7.60;5.90;;;;;;;14.81;100.00;93033.00;1778109;80;21046;-79
2021/07/06 05:03:28;;;;;;;7.00;5.55;;;;;;;14.89;100.00;93037.69;1781102;80;21097;-76
2021/07/06 05:05:55;;;;;;;6.30;5.70;;;;;;;14.97;100.00;93036.89;1783438;80;21938;-75
2021/07/06 05:08:22;;;;;;;6.17;5.58;;;;;;;15.00;100.00;93033.30;1785287;78;21129;-76
2021/07/06 05:10:50;;;;;;;5.87;5.35;;;;;;;15.01;100.00;93039.73;1781909;78;21038;-75
2021/07/06 05:13:17;;;;;;;6.47;5.87;;;;;;;15.00;100.00;93042.27;1786275;78;21093;-75
2021/07/06 05:15:45;;;;;;;6.70;5.25;;;;;;;14.97;100.00;93045.11;1830865;75;21218;-77
2021/07/06 05:18:11;;;;;;;9.10;5.75;;;;;;;14.96;100.00;93044.34;1817567;76;21110;-76
2021/07/06 05:20:38;;;;;;;7.55;6.45;;;;;;;14.97;100.00;93042.37;1766698;79;21601;-77
2021/07/06 05:23:04;;;;;;;8.65;5.60;;;;;;;15.00;100.00;93050.48;1794532;79;21034;-75
2021/07/06 05:25:31;;;;;;;6.25;5.20;;;;;;;15.03;100.00;93051.00;1784028;79;21053;-78
2021/07/06 05:27:57;;;;;;;6.30;5.58;;;;;;;15.08;100.00;93051.67;1780492;80;21098;-76
2021/07/06 05:30:24;;;;;;;5.37;4.87;;;;;;;15.08;100.00;93059.88;1780679;80;21033;-77
2021/07/06 05:32:50;;;;;;;5.97;5.35;;;;;;;15.09;100.00;93052.63;1783066;80;21480;-78
2021/07/06 05:35:17;;;;;;;6.72;5.42;;;;;;;15.11;100.00;93059.02;1794145;78;21049;-77
2021/07/06 05:37:43;;;;;;;8.68;6.60;;;;;;;15.12;100.00;93055.88;1789808;78;21047;-77
2021/07/06 05:40:10;;;;;;;6.97;6.25;;;;;;;15.16;100.00;93063.99;1805164;78;21050;-77
2021/07/06 05:42:38;;;;;;;8.38;6.70;;;;;;;15.19;100.00;93064.47;1784272;78;21046;-76
2021/07/06 05:45:07;;;;;;;6.37;5.78;;;;;;;15.23;100.00;93064.56;1787469;78;21129;-76
2021/07/06 05:47:35;;;;;;;6.30;5.67;;;;;;;15.26;100.00;93073.27;1778114;78;21110;-75
2021/07/06 05:50:07;;;;;;;7.05;6.33;;;;;;;15.32;100.00;93071.38;1770471;80;21010;-76
2021/07/06 05:52:34;;;;;;;9.80;7.22;;;;;;;15.42;100.00;93069.72;1736638;80;21101;-76
2021/07/06 05:57:40;;;;;;;6.28;5.50;;;;;;;15.79;100.00;93068.27;1830884;77;23214;-77
2021/07/06 06:00:11;;;;;;;6.95;6.00;;;;;;;16.05;100.00;93069.67;1824834;75;20933;-77
2021/07/06 06:02:37;;;;;;;7.03;6.15;;;;;;;16.44;100.00;93064.97;1763097;78;22226;-76
2021/07/06 06:05:05;;;;;;;9.75;7.20;;;;;;;16.80;100.00;93069.31;1753542;79;21022;-77
2021/07/06 06:07:38;;;;;;;9.25;7.15;;;;;;;17.05;98.26;93066.50;1791865;79;21140;-75
2021/07/06 06:10:06;;;;;;;11.30;6.87;;;;;;;17.15;96.45;93068.12;1757552;81;21596;-74
2021/07/06 06:12:32;;;;;;;11.50;7.35;;;;;;;17.24;95.62;93059.94;1790298;77;21120;-76
2021/07/06 06:14:59;;;;;;;8.58;7.62;;;;;;;17.40;95.84;93062.34;1764043;78;22147;-78
2021/07/06 06:18:38;;;;;;;8.53;6.78;;;;;;;17.61;93.56;93062.19;1841506;76;22590;-75
2021/07/06 06:21:05;;;;;;;148.55;115.55;;;;;;;17.63;92.53;93065.24;1771636;78;21437;-78
2021/07/06 06:23:32;;;;;;;21.87;17.15;;;;;;;17.63;91.98;93056.39;1793680;78;21983;-79
2021/07/06 06:29:08;;;;;;;10.10;7.22;;;;;;;17.68;91.35;93057.81;1876154;74;23032;-77
2021/07/06 06:31:34;;;;;;;9.15;6.90;;;;;;;17.67;92.99;93059.00;1834042;77;21083;-77
2021/07/06 06:34:00;;;;;;;8.58;6.78;;;;;;;17.73;93.12;93061.34;1825460;77;21209;-76
2021/07/06 06:37:32;;;;;;;10.18;6.67;;;;;;;17.81;92.04;93055.77;1765057;79;22701;-79
2021/07/06 06:43:11;;;;;;;8.40;7.45;;;;;;;18.01;92.90;93062.89;1875843;74;22057;-76
2021/07/06 06:49:38;;;;;;;10.25;7.95;;;;;;;18.20;92.23;93054.88;1806814;77;23876;-77
2021/07/06 06:52:06;;;;;;;9.93;7.25;;;;;;;18.18;91.89;93061.45;1781714;78;21876;-77
2021/07/06 06:54:34;;;;;;;9.15;8.08;;;;;;;18.23;91.72;93051.84;1771476;79;21494;-78
2021/07/06 06:57:01;;;;;;;11.57;8.03;;;;;;;18.28;93.04;93052.03;1811977;76;21028;-78
2021/07/06 06:59:28;;;;;;;9.43;6.97;;;;;;;18.41;93.49;93051.91;1798498;78;21257;-77
2021/07/06 07:02:16;;;;;;;9.05;8.10;;;;;;;18.56;93.41;93045.98;1790818;78;21056;-77
2021/07/06 07:04:22;;;;;;;20.08;9.98;;;;;;;18.71;93.27;93054.47;1841433;76;20996;-78
2021/07/06 07:07:50;;;;;;;9.53;7.65;;;;;;;18.95;92.21;93051.89;1821503;77;22685;-76
2021/07/06 07:10:19;;;;;;;11.48;7.53;;;;;;;19.09;91.15;93058.19;1807067;77;21614;-75
2021/07/06 07:12:45;;;;;;;7.12;6.42;;;;;;;19.24;89.54;93060.34;1773872;79;21117;-76
2021/07/06 07:15:12;;;;;;;7.03;6.33;;;;;;;19.33;85.73;93054.83;1755732;79;20968;-76
2021/07/06 07:19:59;;;;;;;7.45;6.75;;;;;;;19.43;82.48;93058.36;1878243;74;22106;-76
2021/07/06 07:22:26;;;;;;;6.03;5.42;;;;;;;19.41;83.11;93061.59;1801260;77;21041;-77
2021/07/06 07:25:57;;;;;;;10.10;8.33;;;;;;;19.49;82.38;93059.28;1831275;76;22732;-77
2021/07/06 07:30:01;;;;;;;9.95;7.22;;;;;;;19.55;82.99;93066.45;1859593;75;22637;-77
2021/07/06 07:32:28;;;;;;;8.43;6.80;;;;;;;19.54;82.37;93069.69;1802161;77;21590;-77
2021/07/06 07:34:54;;;;;;;7.75;6.67;;;;;;;19.55;82.56;93065.70;1816003;77;22320;-77
2021/07/06 07:37:21;;;;;;;10.20;6.95;;;;;;;19.58;83.17;93069.67;1814493;78;20937;-78
2021/07/06 07:39:47;;;;;;;11.08;7.58;;;;;;;19.64;82.40;93071.25;1797488;78;20998;-77
2021/07/06 07:42:26;;;;;;;9.68;6.80;;;;;;;19.74;80.94;93071.37;1828453;77;21093;-78
2021/07/06 07:44:53;;;;;;;7.37;6.42;;;;;;;19.84;80.25;93070.75;1760513;78;21116;-77
2021/07/06 07:47:19;;;;;;;6.62;5.67;;;;;;;19.95;80.72;93069.66;1801111;77;21494;-76
2021/07/06 07:49:46;;;;;;;9.70;6.33;;;;;;;20.09;80.88;93072.39;1811926;77;21267;-76
2021/07/06 07:52:12;;;;;;;7.75;6.28;;;;;;;20.23;79.64;93077.85;1825934;78;21106;-76
2021/07/06 07:54:40;;;;;;;7.97;6.45;;;;;;;20.38;79.09;93071.81;1818413;78;21057;-74
2021/07/06 07:57:10;;;;;;;11.15;7.90;;;;;;;20.47;78.01;93071.79;1788990;79;21043;-76
2021/07/06 07:59:38;;;;;;;7.62;6.20;;;;;;;20.57;76.68;93076.08;1824621;77;21270;-75
2021/07/06 08:02:05;;;;;;;5.75;5.08;;;;;;;20.63;74.38;93075.43;1804318;78;21088;-75
2021/07/06 08:04:33;;;;;;;6.47;5.60;;;;;;;20.64;75.08;93074.19;1815656;77;21064;-75
2021/07/06 08:07:00;;;;;;;5.87;5.28;;;;;;;20.65;73.93;93070.98;1843926;77;21547;-77
2021/07/06 08:09:27;;;;;;;7.58;5.53;;;;;;;20.65;71.60;93077.88;1772078;79;21097;-78
2021/07/06 08:11:53;;;;;;;7.25;5.87;;;;;;;20.71;71.93;93068.33;1795056;78;21504;-75
2021/07/06 08:14:21;;;;;;;6.65;5.28;;;;;;;20.76;73.07;93070.44;1800773;79;21002;-77
2021/07/06 08:16:51;;;;;;;5.58;4.97;;;;;;;20.81;72.11;93066.44;1793922;78;21049;-75
2021/07/06 08:19:17;;;;;;;8.93;5.25;;;;;;;20.87;71.68;93066.54;1807378;76;21041;-77
2021/07/06 08:21:45;;;;;;;7.78;5.50;;;;;;;20.90;71.65;93069.75;1848954;76;21118;-76
2021/07/06 08:24:11;;;;;;;8.40;5.30;;;;;;;20.89;69.01;93072.37;1811712;76;21137;-78
2021/07/06 08:26:38;;;;;;;8.23;7.03;;;;;;;20.87;70.00;93072.06;1763018;79;21337;-76
2021/07/06 08:29:05;;;;;;;6.35;5.75;;;;;;;20.95;71.09;93078.01;1748855;79;21014;-76
2021/07/06 08:31:31;;;;;;;5.72;5.20;;;;;;;21.04;70.89;93069.67;1788262;78;21066;-78
2021/07/06 08:33:59;;;;;;;6.03;5.47;;;;;;;21.10;71.80;93071.33;1802282;77;21037;-76
2021/07/06 08:36:25;;;;;;;5.30;4.87;;;;;;;21.14;70.66;93074.52;1847920;76;21086;-77
2021/07/06 08:38:52;;;;;;;6.03;5.40;;;;;;;21.15;70.60;93080.97;1815649;76;21098;-76
2021/07/06 08:41:18;;;;;;;6.08;5.30;;;;;;;21.16;68.45;93080.34;1825255;77;21112;-76
2021/07/06 08:43:46;;;;;;;5.95;5.33;;;;;;;21.17;69.72;93079.10;1809056;78;21012;-77
2021/07/06 08:46:20;;;;;;;7.00;6.25;;;;;;;21.22;70.91;93071.56;1783632;77;20999;-79
2021/07/06 08:48:48;;;;;;;7.17;5.90;;;;;;;21.33;73.40;93073.20;1821302;77;21123;-78
2021/07/06 08:51:20;;;;;;;7.37;5.50;;;;;;;21.45;73.66;93074.18;1781173;78;21122;-77
2021/07/06 08:53:48;;;;;;;6.17;5.53;;;;;;;21.55;72.53;93075.61;1793551;77;21919;-78
2021/07/06 08:56:14;;;;;;;6.35;5.67;;;;;;;21.67;73.73;93075.23;1758531;79;20954;-77
2021/07/06 08:58:42;;;;;;;7.42;5.62;;;;;;;21.75;71.97;93069.47;1738992;78;21096;-76
2021/07/06 09:01:09;;;;;;;5.95;4.95;;;;;;;21.73;69.21;93078.85;1788522;78;21142;-76
2021/07/06 09:03:56;;;;;;;5.42;4.92;;;;;;;21.66;67.94;93084.75;1754303;79;21058;-78
2021/07/06 09:06:26;;;;;;;9.15;7.55;;;;;;;21.58;67.50;93082.97;1769207;78;21021;-77
2021/07/06 09:09:15;;;;;;;7.20;5.65;;;;;;;21.61;68.25;93088.95;1711461;78;21109;-77
2021/07/06 09:11:50;;;;;;;7.12;5.05;;;;;;;21.67;68.79;93083.53;1785693;77;21385;-77
2021/07/06 09:14:17;;;;;;;;;;;;;;;21.68;67.23;93089.20;1767593;77;21102;-78
2021/07/06 09:16:44;;;;;;;5.12;4.28;;;;;;;21.67;64.29;93084.92;1784038;78;20194;-78
2021/07/06 09:21:37;;;;;;;5.15;4.70;;;;;;;21.71;64.66;93081.34;1800072;77;21910;-78
2021/07/06 09:24:04;;;;;;;5.70;4.62;;;;;;;21.80;64.98;93081.25;1782519;79;21124;-77
2021/07/06 09:26:32;;;;;;;8.00;5.15;;;;;;;21.83;65.20;93082.45;1777796;79;21922;-77
2021/07/06 09:29:00;;;;;;;6.17;5.45;;;;;;;21.87;65.20;93086.41;1739757;76;21039;-77
2021/07/06 09:31:32;;;;;;;5.15;4.60;;;;;;;21.91;63.08;93084.22;1839884;76;22243;-79
2021/07/06 09:34:11;;;;;;;4.62;4.22;;;;;;;21.89;63.24;93077.03;1776075;78;21106;-78
2021/07/06 09:36:49;;;;;;;6.20;4.53;;;;;;;21.88;63.86;93080.25;1755555;80;21099;-78
2021/07/06 09:39:25;;;;;;;10.35;7.33;;;;;;;21.93;65.67;93077.60;1782263;78;21130;-78
2021/07/06 09:42:01;;;;;;;5.80;5.12;;;;;;;22.01;64.85;93079.38;1786047;78;21034;-79
2021/07/06 09:44:32;;;;;;;5.55;4.97;;;;;;;22.05;64.99;93079.31;1787827;78;20941;-80
2021/07/06 09:47:07;;;;;;;5.58;4.60;;;;;;;22.06;65.29;93076.69;1787718;78;21010;-78
2021/07/06 09:49:35;;;;;;;;;;;;;;;22.07;65.64;93080.22;1763273;79;21671;-78
2021/07/06 09:52:15;;;;;;;5.58;4.95;;;;;;;22.12;65.35;93081.57;1777404;79;21099;-78
2021/07/06 09:54:49;;;;;;;6.12;5.50;;;;;;;22.17;66.56;93079.54;1755621;79;20939;-78
2021/07/06 09:57:30;;;;;;;4.55;4.10;;;;;;;22.31;65.70;93085.70;1788197;77;21444;-78
2021/07/06 10:00:13;;;;;;;4.95;3.70;;;;;;;22.41;61.12;93082.19;1767601;79;21081;-78
2021/07/06 10:02:41;;;;;;;5.55;4.12;;;;;;;22.46;61.31;93083.67;1819794;76;21112;-79
2021/07/06 10:05:14;;;;;;;7.62;4.72;;;;;;;22.52;63.91;93083.75;1809112;77;22050;-78
2021/07/06 10:07:40;;;;;;;5.40;5.00;;;;;;;22.59;64.88;93083.98;1854121;76;21010;-77
2021/07/06 10:10:11;;;;;;;6.25;5.53;;;;;;;22.66;64.93;93074.66;1795755;79;21060;-77
2021/07/06 10:12:45;;;;;;;4.92;4.53;;;;;;;22.68;65.81;93073.56;1841726;76;20977;-77
2021/07/06 10:15:14;;;;;;;4.50;4.20;;;;;;;22.69;66.01;93061.86;1809049;77;20907;-79
2021/07/06 10:17:43;;;;;;;4.72;4.33;;;;;;;22.65;63.75;93070.36;1807877;77;21092;-78
2021/07/06 10:20:14;;;;;;;5.03;4.62;;;;;;;22.61;63.07;93068.42;1826658;76;21543;-79
2021/07/06 10:22:41;;;;;;;5.00;4.45;;;;;;;22.60;63.58;93074.42;1782848;78;20970;-79
2021/07/06 10:25:09;;;;;;;5.20;4.70;;;;;;;22.54;63.73;93069.57;1780706;78;21124;-79
2021/07/06 10:27:46;;;;;;;4.83;4.42;;;;;;;22.53;63.65;93065.91;1788952;78;21382;-77
2021/07/06 10:30:15;;;;;;;5.30;4.55;;;;;;;22.53;64.54;93064.52;1778271;78;22274;-78
2021/07/06 10:32:54;;;;;;;4.58;4.17;;;;;;;22.54;63.38;93071.58;1779377;79;20911;-79
2021/07/06 10:35:45;;;;;;;5.30;4.30;;;;;;;22.54;63.16;93070.95;1779872;79;21015;-79
2021/07/06 10:38:33;;;;;;;5.53;5.03;;;;;;;22.50;63.65;93069.62;1732418;79;21634;-77
2021/07/06 10:41:05;;;;;;;5.95;5.45;;;;;;;22.33;60.89;93065.20;1807759;78;21528;-77
2021/07/06 10:43:41;;;;;;;6.30;5.10;;;;;;;22.25;62.25;93068.98;1776988;78;21095;-76
2021/07/06 10:46:30;;;;;;;6.12;5.30;;;;;;;22.29;63.79;93064.00;1770584;78;22040;-77
2021/07/06 10:49:07;;;;;;;5.22;4.60;;;;;;;22.40;64.18;93063.42;1785751;79;21076;-76
2021/07/06 10:51:39;;;;;;;5.10;4.60;;;;;;;22.48;62.03;93057.63;1821615;76;21031;-77
2021/07/06 10:54:17;;;;;;;5.30;4.80;;;;;;;22.54;62.27;93059.11;1836128;76;21071;-78
2021/07/06 10:56:51;;;;;;;4.97;4.45;;;;;;;22.61;63.43;93060.73;1860063;75;21059;-78
2021/07/06 10:59:35;;;;;;;5.78;4.80;;;;;;;22.62;64.54;93061.62;1812178;77;21074;-79
2021/07/06 11:02:12;;;;;;;5.53;5.03;;;;;;;22.59;65.28;93059.05;1792259;78;21058;-79
2021/07/06 11:07:37;;;;;;;6.35;5.83;;;;;;;22.62;65.14;93073.33;1812929;77;21093;-78
2021/07/06 11:10:06;;;;;;;6.55;5.10;;;;;;;22.66;62.98;93069.11;1827710;77;21736;-78
2021/07/06 11:12:39;;;;;;;7.50;4.80;;;;;;;22.70;61.86;93073.08;1819998;77;21530;-77
2021/07/06 11:15:16;;;;;;;5.10;4.70;;;;;;;22.73;61.48;93070.10;1830034;76;21030;-78
2021/07/06 11:17:50;;;;;;;7.58;5.50;;;;;;;22.77;61.98;93069.91;1829251;76;21015;-78
2021/07/06 11:20:34;;;;;;;4.87;4.47;;;;;;;22.83;63.06;93063.05;1810026;76;22076;-77
2021/07/06 11:23:01;;;;;;;5.33;4.87;;;;;;;22.88;63.88;93056.83;1761778;79;21062;-77
2021/07/06 11:25:37;;;;;;;4.67;4.28;;;;;;;22.89;63.34;93059.11;1773575;79;21879;-78
2021/07/06 11:28:14;;;;;;;5.17;4.53;;;;;;;22.89;61.22;93059.73;1799185;77;20965;-79
2021/07/06 11:30:50;;;;;;;5.72;4.97;;;;;;;22.90;60.35;93054.33;1797270;77;20982;-77
2021/07/06 11:33:37;;;;;;;5.62;5.10;;;;;;;22.95;61.29;93059.98;1772457;77;20975;-78
2021/07/06 11:36:06;;;;;;;5.60;5.10;;;;;;;23.01;60.27;93056.65;1805266;77;21099;-78
2021/07/06 11:38:42;;;;;;;6.10;4.90;;;;;;;23.01;60.27;93059.42;1796618;77;21021;-78
2021/07/06 11:41:12;;;;;;;11.48;6.35;;;;;;;23.03;60.83;93054.80;1805395;77;20864;-81
2021/07/06 11:43:40;;;;;;;127.10;36.68;;;;;;;23.01;62.13;93045.56;1814372;77;20995;-79
2021/07/06 11:46:10;;;;;;;150.32;41.30;;;;;;;23.05;63.43;93050.14;1812348;77;20923;-79
2021/07/06 11:48:38;;;;;;;19.92;9.30;;;;;;;23.07;62.98;93056.73;1817380;77;21062;-78
2021/07/06 11:51:07;;;;;;;10.63;6.10;;;;;;;23.10;61.89;93054.39;1822164;77;20975;-80
2021/07/06 11:53:39;;;;;;;8.28;6.15;;;;;;;23.13;62.22;93049.27;1804615;77;21127;-78
2021/07/06 11:56:06;;;;;;;7.55;6.72;;;;;;;23.14;61.50;93056.33;1781034;78;21334;-79
2021/07/06 11:58:34;;;;;;;27.95;9.90;;;;;;;23.15;60.81;93047.38;1803403;77;20876;-80
2021/07/06 12:01:07;;;;;;;17.87;7.65;;;;;;;23.16;60.13;93051.05;1789530;78;22154;-81